sensor_id;sensor_type;location;lat;lon;timestamp;P1;durP1;ratioP1;P2;durP2;ratioP2
1090;SDS011;534;48.704;9.122;2024-02-28T05:00:48;21.27;;;15.40;;
1090;SDS011;534;48.704;9.122;2024-02-28T05:03:15;24.07;;;15.43;;
1090;SDS011;534;48.704;9.122;2024-02-28T05:05:42;23.47;;;15.83;;
1090;SDS011;534;48.704;9.122;2024-02-28T05:08:08;20.47;;;15.30;;
1090;SDS011;534;48.704;9.122;2024-02-28T05:10:35;20.67;;;13.90;;
1090;SDS011;534;48.704;9.122;2024-02-28T05:13:02;22.10;;;15.63;;
1090;SDS011;534;48.704;9.122;2024-02-28T05:15:34;21.27;;;15.00;;
1090;SDS011;534;48.704;9.122;2024-02-28T05:18:03;23.60;;;15.33;;
1090;SDS011;534;48.704;9.122;2024-02-28T05:20:30;23.90;;;15.90;;
1090;SDS011;534;48.704;9.122;2024-02-28T05:22:56;24.40;;;15.83;;
1090;SDS011;534;48.704;9.122;2024-02-28T05:25:23;19.93;;;13.93;;
1090;SDS011;534;48.704;9.122;2024-02-28T05:27:49;25.70;;;17.43;;
1090;SDS011;534;48.704;9.122;2024-02-28T05:30:16;21.67;;;15.60;;
1090;SDS011;534;48.704;9.122;2024-02-28T05:32:44;20.40;;;16.10;;
1090;SDS011;534;48.704;9.122;2024-02-28T05:35:12;24.10;;;15.80;;
1090;SDS011;534;48.704;9.122;2024-02-28T05:37:39;20.20;;;13.40;;
1090;SDS011;534;48.704;9.122;2024-02-28T05:40:06;23.83;;;16.00;;
1090;SDS011;534;48.704;9.122;2024-02-28T05:42:34;20.57;;;14.40;;
1090;SDS011;534;48.704;9.122;2024-02-28T05:45:01;26.73;;;16.97;;
1090;SDS011;534;48.704;9.122;2024-02-28T05:47:27;20.43;;;15.23;;
1090;SDS011;534;48.704;9.122;2024-02-28T05:49:54;22.53;;;15.90;;
1090;SDS011;534;48.704;9.122;2024-02-28T05:52:24;23.47;;;15.50;;
1090;SDS011;534;48.704;9.122;2024-02-28T05:54:52;20.90;;;15.70;;
1090;SDS011;534;48.704;9.122;2024-02-28T05:57:18;21.50;;;15.27;;
1090;SDS011;534;48.704;9.122;2024-02-28T05:59:45;24.17;;;15.63;;
1090;SDS011;534;48.704;9.122;2024-02-28T06:02:12;20.93;;;15.77;;
1090;SDS011;534;48.704;9.122;2024-02-28T06:04:39;22.23;;;15.70;;
1090;SDS011;534;48.704;9.122;2024-02-28T06:07:06;20.03;;;13.67;;
1090;SDS011;534;48.704;9.122;2024-02-28T06:09:34;23.50;;;16.40;;
1090;SDS011;534;48.704;9.122;2024-02-28T06:12:00;22.90;;;15.50;;
1090;SDS011;534;48.704;9.122;2024-02-28T06:14:28;26.23;;;16.57;;
1090;SDS011;534;48.704;9.122;2024-02-28T06:16:55;22.90;;;16.53;;
1090;SDS011;534;48.704;9.122;2024-02-28T06:19:21;24.30;;;16.80;;
1090;SDS011;534;48.704;9.122;2024-02-28T06:21:48;24.20;;;15.97;;
1090;SDS011;534;48.704;9.122;2024-02-28T06:24:15;20.60;;;15.80;;
1090;SDS011;534;48.704;9.122;2024-02-28T06:26:43;26.97;;;15.70;;
1090;SDS011;534;48.704;9.122;2024-02-28T06:29:10;25.43;;;16.27;;
1090;SDS011;534;48.704;9.122;2024-02-28T06:31:36;21.37;;;16.50;;
1090;SDS011;534;48.704;9.122;2024-02-28T06:34:03;24.33;;;15.97;;
1090;SDS011;534;48.704;9.122;2024-02-28T06:36:30;21.57;;;15.60;;
1090;SDS011;534;48.704;9.122;2024-02-28T06:38:57;21.50;;;16.50;;
1090;SDS011;534;48.704;9.122;2024-02-28T06:41:24;20.47;;;15.83;;
1090;SDS011;534;48.704;9.122;2024-02-28T06:43:52;25.63;;;17.47;;
1090;SDS011;534;48.704;9.122;2024-02-28T06:46:18;23.03;;;17.63;;
1090;SDS011;534;48.704;9.122;2024-02-28T06:48:44;24.00;;;17.40;;
1090;SDS011;534;48.704;9.122;2024-02-28T06:51:11;21.50;;;16.60;;
1090;SDS011;534;48.704;9.122;2024-02-28T06:53:38;22.80;;;17.20;;
1090;SDS011;534;48.704;9.122;2024-02-28T06:56:04;27.57;;;16.90;;
1090;SDS011;534;48.704;9.122;2024-02-28T06:58:31;21.20;;;15.93;;
1090;SDS011;534;48.704;9.122;2024-02-28T07:00:59;22.17;;;17.23;;
1090;SDS011;534;48.704;9.122;2024-02-28T07:03:26;22.30;;;16.60;;
1090;SDS011;534;48.704;9.122;2024-02-28T07:05:53;23.13;;;15.77;;
1090;SDS011;534;48.704;9.122;2024-02-28T07:08:20;23.97;;;17.20;;
1090;SDS011;534;48.704;9.122;2024-02-28T07:10:47;24.80;;;15.63;;
1090;SDS011;534;48.704;9.122;2024-02-28T07:13:18;22.00;;;15.03;;
1090;SDS011;534;48.704;9.122;2024-02-28T07:15:45;24.87;;;16.97;;
1090;SDS011;534;48.704;9.122;2024-02-28T07:18:13;20.80;;;15.97;;
1090;SDS011;534;48.704;9.122;2024-02-28T07:20:39;24.63;;;14.70;;
1090;SDS011;534;48.704;9.122;2024-02-28T07:23:06;23.90;;;15.93;;
1090;SDS011;534;48.704;9.122;2024-02-28T07:25:33;23.67;;;16.80;;
1090;SDS011;534;48.704;9.122;2024-02-28T07:28:00;23.30;;;15.37;;
1090;SDS011;534;48.704;9.122;2024-02-28T07:30:27;21.43;;;15.80;;
1090;SDS011;534;48.704;9.122;2024-02-28T07:32:54;20.47;;;15.30;;
1090;SDS011;534;48.704;9.122;2024-02-28T07:35:22;22.33;;;16.50;;
1090;SDS011;534;48.704;9.122;2024-02-28T07:37:49;24.10;;;16.90;;
1090;SDS011;534;48.704;9.122;2024-02-28T07:40:16;22.53;;;14.57;;
1090;SDS011;534;48.704;9.122;2024-02-28T07:42:43;20.67;;;15.03;;
1090;SDS011;534;48.704;9.122;2024-02-28T07:45:10;19.93;;;13.97;;
1090;SDS011;534;48.704;9.122;2024-02-28T07:47:36;22.47;;;14.70;;
1090;SDS011;534;48.704;9.122;2024-02-28T07:50:03;22.53;;;16.10;;
1090;SDS011;534;48.704;9.122;2024-02-28T07:52:32;22.90;;;15.37;;
1090;SDS011;534;48.704;9.122;2024-02-28T07:55:00;24.13;;;14.80;;
1090;SDS011;534;48.704;9.122;2024-02-28T07:57:26;18.87;;;14.07;;
1090;SDS011;534;48.704;9.122;2024-02-28T07:59:53;20.90;;;14.70;;
1090;SDS011;534;48.704;9.122;2024-02-28T08:02:20;19.80;;;14.30;;
1090;SDS011;534;48.704;9.122;2024-02-28T08:04:47;21.20;;;15.23;;
1090;SDS011;534;48.704;9.122;2024-02-28T08:07:15;23.20;;;16.00;;
1090;SDS011;534;48.704;9.122;2024-02-28T08:09:43;18.80;;;13.63;;
1090;SDS011;534;48.704;9.122;2024-02-28T08:12:10;19.47;;;14.00;;
1090;SDS011;534;48.704;9.122;2024-02-28T08:14:36;19.47;;;14.20;;
1090;SDS011;534;48.704;9.122;2024-02-28T08:17:03;22.83;;;16.17;;
1090;SDS011;534;48.704;9.122;2024-02-28T08:19:30;20.40;;;14.10;;
1090;SDS011;534;48.704;9.122;2024-02-28T08:21:57;21.90;;;14.90;;
1090;SDS011;534;48.704;9.122;2024-02-28T08:24:23;21.37;;;12.80;;
1090;SDS011;534;48.704;9.122;2024-02-28T08:26:51;21.50;;;14.10;;
1090;SDS011;534;48.704;9.122;2024-02-28T08:29:18;22.43;;;15.07;;
1090;SDS011;534;48.704;9.122;2024-02-28T08:31:45;21.00;;;14.70;;
1090;SDS011;534;48.704;9.122;2024-02-28T08:34:11;21.70;;;15.53;;
1090;SDS011;534;48.704;9.122;2024-02-28T08:36:38;21.20;;;15.30;;
1090;SDS011;534;48.704;9.122;2024-02-28T08:39:05;21.20;;;15.93;;
1090;SDS011;534;48.704;9.122;2024-02-28T08:41:34;24.10;;;15.53;;
1090;SDS011;534;48.704;9.122;2024-02-28T08:44:02;22.03;;;15.80;;
1090;SDS011;534;48.704;9.122;2024-02-28T08:46:29;24.27;;;15.30;;
1090;SDS011;534;48.704;9.122;2024-02-28T08:48:55;20.23;;;14.60;;
1090;SDS011;534;48.704;9.122;2024-02-28T08:51:22;20.27;;;14.37;;
1090;SDS011;534;48.704;9.122;2024-02-28T08:53:49;19.57;;;13.10;;
1090;SDS011;534;48.704;9.122;2024-02-28T08:56:17;19.23;;;13.90;;
1090;SDS011;534;48.704;9.122;2024-02-28T08:58:43;18.63;;;12.00;;
1090;SDS011;534;48.704;9.122;2024-02-28T09:01:14;23.10;;;14.73;;
1090;SDS011;534;48.704;9.122;2024-02-28T09:03:41;18.67;;;13.20;;
1090;SDS011;534;48.704;9.122;2024-02-28T09:06:08;19.57;;;13.30;;
1090;SDS011;534;48.704;9.122;2024-02-28T09:08:34;17.60;;;12.50;;
1090;SDS011;534;48.704;9.122;2024-02-28T09:11:01;21.03;;;13.50;;
1090;SDS011;534;48.704;9.122;2024-02-28T09:13:30;21.00;;;13.80;;
1090;SDS011;534;48.704;9.122;2024-02-28T09:15:56;25.87;;;16.40;;
1090;SDS011;534;48.704;9.122;2024-02-28T09:18:24;19.90;;;13.03;;
1090;SDS011;534;48.704;9.122;2024-02-28T09:20:51;21.80;;;13.03;;
1090;SDS011;534;48.704;9.122;2024-02-28T09:23:18;17.97;;;13.17;;
1090;SDS011;534;48.704;9.122;2024-02-28T09:25:44;16.80;;;12.90;;
1090;SDS011;534;48.704;9.122;2024-02-28T09:28:11;23.03;;;14.97;;
1090;SDS011;534;48.704;9.122;2024-02-28T09:30:41;19.90;;;14.40;;
1090;SDS011;534;48.704;9.122;2024-02-28T09:33:07;20.23;;;15.43;;
1090;SDS011;534;48.704;9.122;2024-02-28T09:35:36;22.80;;;14.50;;
1090;SDS011;534;48.704;9.122;2024-02-28T09:38:02;19.10;;;15.07;;
1090;SDS011;534;48.704;9.122;2024-02-28T09:40:29;23.30;;;15.70;;
1090;SDS011;534;48.704;9.122;2024-02-28T09:42:57;19.60;;;14.97;;
1090;SDS011;534;48.704;9.122;2024-02-28T09:45:28;20.17;;;15.23;;
1090;SDS011;534;48.704;9.122;2024-02-28T09:47:57;21.87;;;16.03;;
1090;SDS011;534;48.704;9.122;2024-02-28T09:50:25;25.83;;;15.73;;
1090;SDS011;534;48.704;9.122;2024-02-28T09:52:54;25.13;;;17.47;;
1090;SDS011;534;48.704;9.122;2024-02-28T09:55:22;29.33;;;17.80;;
1090;SDS011;534;48.704;9.122;2024-02-28T09:57:48;27.17;;;18.80;;
1090;SDS011;534;48.704;9.122;2024-02-28T10:00:18;25.43;;;17.90;;
1090;SDS011;534;48.704;9.122;2024-02-28T10:02:46;21.67;;;16.00;;
1090;SDS011;534;48.704;9.122;2024-02-28T10:05:14;22.00;;;15.50;;
1090;SDS011;534;48.704;9.122;2024-02-28T10:07:43;22.97;;;15.30;;
1090;SDS011;534;48.704;9.122;2024-02-28T10:10:12;26.13;;;17.73;;
1090;SDS011;534;48.704;9.122;2024-02-28T10:12:40;28.30;;;18.77;;
1090;SDS011;534;48.704;9.122;2024-02-28T10:15:09;24.90;;;17.30;;
1090;SDS011;534;48.704;9.122;2024-02-28T10:17:36;22.10;;;14.97;;
1090;SDS011;534;48.704;9.122;2024-02-28T10:20:04;23.87;;;17.40;;
1090;SDS011;534;48.704;9.122;2024-02-28T10:22:33;23.50;;;15.77;;
1090;SDS011;534;48.704;9.122;2024-02-28T10:25:00;25.50;;;16.43;;
1090;SDS011;534;48.704;9.122;2024-02-28T10:27:30;25.07;;;16.40;;
1090;SDS011;534;48.704;9.122;2024-02-28T10:29:58;21.80;;;15.93;;
1090;SDS011;534;48.704;9.122;2024-02-28T10:32:25;33.80;;;16.30;;
1090;SDS011;534;48.704;9.122;2024-02-28T10:34:51;21.60;;;15.07;;
1090;SDS011;534;48.704;9.122;2024-02-28T10:37:20;23.53;;;15.70;;
1090;SDS011;534;48.704;9.122;2024-02-28T10:39:47;20.63;;;15.97;;
1090;SDS011;534;48.704;9.122;2024-02-28T10:42:17;22.03;;;15.70;;
1090;SDS011;534;48.704;9.122;2024-02-28T10:44:46;25.00;;;15.47;;
1090;SDS011;534;48.704;9.122;2024-02-28T10:47:16;21.87;;;14.83;;
1090;SDS011;534;48.704;9.122;2024-02-28T10:49:44;21.53;;;16.47;;
1090;SDS011;534;48.704;9.122;2024-02-28T10:52:11;20.87;;;14.70;;
1090;SDS011;534;48.704;9.122;2024-02-28T10:54:39;23.10;;;14.63;;
1090;SDS011;534;48.704;9.122;2024-02-28T10:57:07;22.30;;;14.97;;
1090;SDS011;534;48.704;9.122;2024-02-28T10:59:34;26.03;;;17.10;;
1090;SDS011;534;48.704;9.122;2024-02-28T11:02:06;24.43;;;17.13;;
1090;SDS011;534;48.704;9.122;2024-02-28T11:04:32;21.47;;;16.40;;
1090;SDS011;534;48.704;9.122;2024-02-28T11:07:00;21.00;;;15.07;;
1090;SDS011;534;48.704;9.122;2024-02-28T11:09:28;22.50;;;13.40;;
1090;SDS011;534;48.704;9.122;2024-02-28T11:11:57;21.87;;;16.03;;
1090;SDS011;534;48.704;9.122;2024-02-28T11:14:24;18.63;;;13.07;;
1090;SDS011;534;48.704;9.122;2024-02-28T11:17:00;20.97;;;15.03;;
1090;SDS011;534;48.704;9.122;2024-02-28T11:19:29;20.70;;;16.60;;
1090;SDS011;534;48.704;9.122;2024-02-28T11:21:58;19.17;;;12.67;;
1090;SDS011;534;48.704;9.122;2024-02-28T11:24:28;18.10;;;13.00;;
1090;SDS011;534;48.704;9.122;2024-02-28T11:26:56;19.80;;;13.37;;
1090;SDS011;534;48.704;9.122;2024-02-28T11:29:24;23.80;;;15.93;;
1090;SDS011;534;48.704;9.122;2024-02-28T11:31:51;21.87;;;14.30;;
1090;SDS011;534;48.704;9.122;2024-02-28T11:34:18;19.80;;;14.50;;
1090;SDS011;534;48.704;9.122;2024-02-28T11:36:48;23.63;;;14.73;;
1090;SDS011;534;48.704;9.122;2024-02-28T11:39:15;20.77;;;13.43;;
1090;SDS011;534;48.704;9.122;2024-02-28T11:41:42;22.10;;;14.07;;
1090;SDS011;534;48.704;9.122;2024-02-28T11:44:11;24.57;;;16.30;;
1090;SDS011;534;48.704;9.122;2024-02-28T11:46:38;19.93;;;13.07;;
1090;SDS011;534;48.704;9.122;2024-02-28T11:49:08;20.60;;;15.17;;
1090;SDS011;534;48.704;9.122;2024-02-28T11:51:35;21.67;;;14.90;;
1090;SDS011;534;48.704;9.122;2024-02-28T11:54:03;21.00;;;15.10;;
1090;SDS011;534;48.704;9.122;2024-02-28T11:56:30;20.70;;;14.40;;
1090;SDS011;534;48.704;9.122;2024-02-28T11:58:58;20.30;;;13.63;;
1090;SDS011;534;48.704;9.122;2024-02-28T12:01:34;19.93;;;14.40;;
1090;SDS011;534;48.704;9.122;2024-02-28T12:04:02;19.13;;;15.70;;
1090;SDS011;534;48.704;9.122;2024-02-28T12:06:30;19.87;;;15.33;;
1090;SDS011;534;48.704;9.122;2024-02-28T12:08:57;18.70;;;14.23;;
1090;SDS011;534;48.704;9.122;2024-02-28T12:11:25;21.70;;;15.37;;
1090;SDS011;534;48.704;9.122;2024-02-28T12:13:53;19.70;;;15.43;;
1090;SDS011;534;48.704;9.122;2024-02-28T12:16:21;19.97;;;13.70;;
1090;SDS011;534;48.704;9.122;2024-02-28T12:18:49;21.40;;;14.90;;
1090;SDS011;534;48.704;9.122;2024-02-28T12:21:17;22.93;;;15.73;;
1090;SDS011;534;48.704;9.122;2024-02-28T12:23:44;22.10;;;14.30;;
1090;SDS011;534;48.704;9.122;2024-02-28T12:26:11;24.30;;;16.37;;
1090;SDS011;534;48.704;9.122;2024-02-28T12:28:38;22.07;;;15.33;;
1090;SDS011;534;48.704;9.122;2024-02-28T12:31:06;22.00;;;14.80;;
1090;SDS011;534;48.704;9.122;2024-02-28T12:33:36;24.00;;;15.10;;
1090;SDS011;534;48.704;9.122;2024-02-28T12:36:03;25.50;;;16.50;;
1090;SDS011;534;48.704;9.122;2024-02-28T12:38:30;24.13;;;15.23;;
1090;SDS011;534;48.704;9.122;2024-02-28T12:40:57;26.40;;;13.60;;
1090;SDS011;534;48.704;9.122;2024-02-28T12:43:24;23.37;;;16.13;;
1090;SDS011;534;48.704;9.122;2024-02-28T12:45:52;23.80;;;14.90;;
1090;SDS011;534;48.704;9.122;2024-02-28T12:48:19;19.63;;;14.30;;
1090;SDS011;534;48.704;9.122;2024-02-28T12:50:46;20.50;;;14.30;;
1090;SDS011;534;48.704;9.122;2024-02-28T12:53:13;21.60;;;15.43;;
1090;SDS011;534;48.704;9.122;2024-02-28T12:55:40;25.23;;;14.60;;
1090;SDS011;534;48.704;9.122;2024-02-28T12:58:07;21.70;;;15.30;;
1090;SDS011;534;48.704;9.122;2024-02-28T13:00:34;21.43;;;14.93;;
1090;SDS011;534;48.704;9.122;2024-02-28T13:03:02;20.07;;;14.20;;
1090;SDS011;534;48.704;9.122;2024-02-28T13:05:29;18.93;;;13.50;;
1090;SDS011;534;48.704;9.122;2024-02-28T13:07:56;21.00;;;14.60;;
1090;SDS011;534;48.704;9.122;2024-02-28T13:10:22;18.87;;;14.43;;
1090;SDS011;534;48.704;9.122;2024-02-28T13:12:50;25.60;;;16.63;;
1090;SDS011;534;48.704;9.122;2024-02-28T13:15:17;21.13;;;15.60;;
1090;SDS011;534;48.704;9.122;2024-02-28T13:17:44;23.87;;;17.30;;
1090;SDS011;534;48.704;9.122;2024-02-28T13:20:15;21.37;;;14.93;;
1090;SDS011;534;48.704;9.122;2024-02-28T13:22:42;22.80;;;15.30;;
1090;SDS011;534;48.704;9.122;2024-02-28T13:25:09;22.80;;;15.27;;
1090;SDS011;534;48.704;9.122;2024-02-28T13:27:39;23.87;;;14.33;;
1090;SDS011;534;48.704;9.122;2024-02-28T13:30:06;19.60;;;13.87;;
1090;SDS011;534;48.704;9.122;2024-02-28T13:32:33;18.87;;;14.17;;
1090;SDS011;534;48.704;9.122;2024-02-28T13:35:00;20.47;;;14.00;;
1090;SDS011;534;48.704;9.122;2024-02-28T13:37:28;19.50;;;14.20;;
1090;SDS011;534;48.704;9.122;2024-02-28T13:39:54;22.10;;;13.03;;
1090;SDS011;534;48.704;9.122;2024-02-28T13:42:21;20.10;;;14.07;;
1090;SDS011;534;48.704;9.122;2024-02-28T13:44:49;20.60;;;14.70;;
1090;SDS011;534;48.704;9.122;2024-02-28T13:47:16;21.20;;;13.70;;
1090;SDS011;534;48.704;9.122;2024-02-28T13:49:42;21.53;;;14.17;;
1090;SDS011;534;48.704;9.122;2024-02-28T13:52:09;19.20;;;14.87;;
1090;SDS011;534;48.704;9.122;2024-02-28T13:54:37;26.43;;;15.33;;
1090;SDS011;534;48.704;9.122;2024-02-28T13:57:04;21.77;;;14.37;;
1090;SDS011;534;48.704;9.122;2024-02-28T13:59:31;21.60;;;16.33;;
1090;SDS011;534;48.704;9.122;2024-02-28T14:01:58;21.00;;;15.10;;
1090;SDS011;534;48.704;9.122;2024-02-28T14:04:25;19.77;;;13.90;;
1090;SDS011;534;48.704;9.122;2024-02-28T14:06:52;20.33;;;14.13;;
1090;SDS011;534;48.704;9.122;2024-02-28T14:09:18;21.77;;;15.33;;
1090;SDS011;534;48.704;9.122;2024-02-28T14:11:46;23.03;;;15.90;;
1090;SDS011;534;48.704;9.122;2024-02-28T14:14:13;20.80;;;14.30;;
1090;SDS011;534;48.704;9.122;2024-02-28T14:16:40;22.17;;;15.67;;
1090;SDS011;534;48.704;9.122;2024-02-28T14:19:08;22.40;;;15.27;;
1090;SDS011;534;48.704;9.122;2024-02-28T14:21:35;24.60;;;16.40;;
1090;SDS011;534;48.704;9.122;2024-02-28T14:24:01;20.60;;;14.90;;
1090;SDS011;534;48.704;9.122;2024-02-28T14:26:28;23.27;;;14.13;;
1090;SDS011;534;48.704;9.122;2024-02-28T14:28:56;23.07;;;15.10;;
1090;SDS011;534;48.704;9.122;2024-02-28T14:31:23;20.77;;;14.40;;
1090;SDS011;534;48.704;9.122;2024-02-28T14:33:49;24.47;;;15.63;;
1090;SDS011;534;48.704;9.122;2024-02-28T14:36:16;22.37;;;15.43;;
1090;SDS011;534;48.704;9.122;2024-02-28T14:38:45;20.73;;;13.20;;
1090;SDS011;534;48.704;9.122;2024-02-28T14:41:12;20.00;;;13.80;;
1090;SDS011;534;48.704;9.122;2024-02-28T14:43:39;20.30;;;15.33;;
1090;SDS011;534;48.704;9.122;2024-02-28T14:46:09;20.27;;;14.00;;
1090;SDS011;534;48.704;9.122;2024-02-28T14:48:36;19.30;;;13.10;;
1090;SDS011;534;48.704;9.122;2024-02-28T14:51:03;25.20;;;14.97;;
1090;SDS011;534;48.704;9.122;2024-02-28T14:53:31;21.07;;;14.30;;
1090;SDS011;534;48.704;9.122;2024-02-28T14:55:58;21.07;;;14.40;;
1090;SDS011;534;48.704;9.122;2024-02-28T14:58:24;20.33;;;14.97;;
1090;SDS011;534;48.704;9.122;2024-02-28T15:00:51;19.20;;;13.73;;
1090;SDS011;534;48.704;9.122;2024-02-28T15:03:20;20.53;;;13.73;;
1090;SDS011;534;48.704;9.122;2024-02-28T15:05:48;20.60;;;13.67;;
1090;SDS011;534;48.704;9.122;2024-02-28T15:08:14;20.83;;;15.10;;
1090;SDS011;534;48.704;9.122;2024-02-28T15:10:41;19.20;;;14.00;;
1090;SDS011;534;48.704;9.122;2024-02-28T15:13:08;20.97;;;15.30;;
1090;SDS011;534;48.704;9.122;2024-02-28T15:15:34;22.73;;;15.17;;
1090;SDS011;534;48.704;9.122;2024-02-28T15:18:02;21.77;;;14.40;;
1090;SDS011;534;48.704;9.122;2024-02-28T15:20:30;21.37;;;14.40;;
1090;SDS011;534;48.704;9.122;2024-02-28T15:22:56;19.57;;;14.57;;
1090;SDS011;534;48.704;9.122;2024-02-28T15:25:24;23.60;;;15.20;;
1090;SDS011;534;48.704;9.122;2024-02-28T15:27:51;24.07;;;14.83;;
1090;SDS011;534;48.704;9.122;2024-02-28T15:30:17;20.30;;;13.63;;
1090;SDS011;534;48.704;9.122;2024-02-28T15:32:44;23.10;;;15.50;;
1090;SDS011;534;48.704;9.122;2024-02-28T15:35:10;19.13;;;13.90;;
1090;SDS011;534;48.704;9.122;2024-02-28T15:37:39;22.50;;;14.67;;
1090;SDS011;534;48.704;9.122;2024-02-28T15:40:06;22.40;;;14.77;;
1090;SDS011;534;48.704;9.122;2024-02-28T15:42:33;23.57;;;16.20;;
1090;SDS011;534;48.704;9.122;2024-02-28T15:45:00;34.63;;;23.57;;
1090;SDS011;534;48.704;9.122;2024-02-28T15:47:27;26.90;;;21.23;;
1090;SDS011;534;48.704;9.122;2024-02-28T15:49:53;22.57;;;13.73;;
1090;SDS011;534;48.704;9.122;2024-02-28T15:52:21;19.20;;;13.70;;
1090;SDS011;534;48.704;9.122;2024-02-28T15:54:49;21.17;;;14.60;;
1090;SDS011;534;48.704;9.122;2024-02-28T15:57:15;24.23;;;15.87;;
1090;SDS011;534;48.704;9.122;2024-02-28T15:59:42;23.10;;;14.93;;
1090;SDS011;534;48.704;9.122;2024-02-28T16:02:09;21.20;;;14.57;;
1090;SDS011;534;48.704;9.122;2024-02-28T16:04:36;21.90;;;15.70;;
1090;SDS011;534;48.704;9.122;2024-02-28T16:07:03;25.03;;;19.87;;
1090;SDS011;534;48.704;9.122;2024-02-28T16:09:30;21.07;;;15.00;;
1090;SDS011;534;48.704;9.122;2024-02-28T16:11:58;22.93;;;15.07;;
1090;SDS011;534;48.704;9.122;2024-02-28T16:14:25;24.13;;;16.13;;
1090;SDS011;534;48.704;9.122;2024-02-28T16:16:51;25.53;;;16.50;;
1090;SDS011;534;48.704;9.122;2024-02-28T16:19:18;26.57;;;16.27;;
1090;SDS011;534;48.704;9.122;2024-02-28T16:21:45;22.03;;;15.47;;
1090;SDS011;534;48.704;9.122;2024-02-28T16:24:14;25.57;;;19.33;;
1090;SDS011;534;48.704;9.122;2024-02-28T16:26:41;22.57;;;16.70;;
1090;SDS011;534;48.704;9.122;2024-02-28T16:29:09;23.30;;;16.10;;
1090;SDS011;534;48.704;9.122;2024-02-28T16:31:36;22.30;;;15.77;;
1090;SDS011;534;48.704;9.122;2024-02-28T16:34:02;25.80;;;17.33;;
1090;SDS011;534;48.704;9.122;2024-02-28T16:36:29;22.70;;;17.10;;
1090;SDS011;534;48.704;9.122;2024-02-28T16:38:56;26.00;;;18.97;;
1090;SDS011;534;48.704;9.122;2024-02-28T16:41:23;22.63;;;15.93;;
1090;SDS011;534;48.704;9.122;2024-02-28T16:43:50;25.57;;;16.73;;
1090;SDS011;534;48.704;9.122;2024-02-28T16:46:21;27.90;;;16.70;;
1090;SDS011;534;48.704;9.122;2024-02-28T16:48:47;24.17;;;16.97;;
1090;SDS011;534;48.704;9.122;2024-02-28T16:51:14;22.40;;;16.10;;
1090;SDS011;534;48.704;9.122;2024-02-28T16:53:42;22.40;;;17.80;;
1090;SDS011;534;48.704;9.122;2024-02-28T16:56:09;24.30;;;17.07;;
1090;SDS011;534;48.704;9.122;2024-02-28T16:58:35;23.73;;;17.80;;
1090;SDS011;534;48.704;9.122;2024-02-28T17:01:04;28.70;;;17.57;;
1090;SDS011;534;48.704;9.122;2024-02-28T17:03:33;29.33;;;18.67;;
1090;SDS011;534;48.704;9.122;2024-02-28T17:06:00;26.07;;;17.30;;
1090;SDS011;534;48.704;9.122;2024-02-28T17:08:27;27.70;;;17.40;;
1090;SDS011;534;48.704;9.122;2024-02-28T17:10:53;30.40;;;19.27;;
1090;SDS011;534;48.704;9.122;2024-02-28T17:13:20;30.97;;;20.43;;
1090;SDS011;534;48.704;9.122;2024-02-28T17:15:47;28.30;;;19.10;;
1090;SDS011;534;48.704;9.122;2024-02-28T17:18:18;27.30;;;18.83;;
1090;SDS011;534;48.704;9.122;2024-02-28T17:20:47;25.80;;;17.63;;
1090;SDS011;534;48.704;9.122;2024-02-28T17:23:14;33.63;;;24.23;;
1090;SDS011;534;48.704;9.122;2024-02-28T17:25:41;25.13;;;19.97;;
1090;SDS011;534;48.704;9.122;2024-02-28T17:28:07;26.97;;;20.50;;
1090;SDS011;534;48.704;9.122;2024-02-28T17:30:35;28.10;;;21.47;;
1090;SDS011;534;48.704;9.122;2024-02-28T17:33:01;24.63;;;20.67;;
1090;SDS011;534;48.704;9.122;2024-02-28T17:35:29;31.30;;;19.87;;
1090;SDS011;534;48.704;9.122;2024-02-28T17:37:56;29.23;;;19.93;;
1090;SDS011;534;48.704;9.122;2024-02-28T17:40:23;24.23;;;17.77;;
1090;SDS011;534;48.704;9.122;2024-02-28T17:42:50;24.50;;;18.83;;
1090;SDS011;534;48.704;9.122;2024-02-28T17:45:17;27.93;;;19.07;;
1090;SDS011;534;48.704;9.122;2024-02-28T17:47:45;26.97;;;17.93;;
1090;SDS011;534;48.704;9.122;2024-02-28T17:50:11;35.33;;;19.57;;
1090;SDS011;534;48.704;9.122;2024-02-28T17:52:40;27.03;;;19.30;;
1090;SDS011;534;48.704;9.122;2024-02-28T17:55:08;25.63;;;19.10;;
1090;SDS011;534;48.704;9.122;2024-02-28T17:57:36;31.43;;;20.80;;
1090;SDS011;534;48.704;9.122;2024-02-28T18:00:03;35.10;;;21.17;;
1090;SDS011;534;48.704;9.122;2024-02-28T18:02:32;28.47;;;20.70;;
1090;SDS011;534;48.704;9.122;2024-02-28T18:04:58;32.30;;;19.13;;
1090;SDS011;534;48.704;9.122;2024-02-28T18:07:25;25.10;;;19.20;;
1090;SDS011;534;48.704;9.122;2024-02-28T18:09:52;26.57;;;19.30;;
1090;SDS011;534;48.704;9.122;2024-02-28T18:12:19;27.23;;;17.80;;
1090;SDS011;534;48.704;9.122;2024-02-28T18:14:46;26.80;;;19.20;;
1090;SDS011;534;48.704;9.122;2024-02-28T18:17:13;26.00;;;19.47;;
1090;SDS011;534;48.704;9.122;2024-02-28T18:19:39;28.57;;;19.43;;
1090;SDS011;534;48.704;9.122;2024-02-28T18:22:06;26.13;;;19.23;;
1090;SDS011;534;48.704;9.122;2024-02-28T18:24:34;30.10;;;20.50;;
1090;SDS011;534;48.704;9.122;2024-02-28T18:27:01;24.90;;;18.13;;
1090;SDS011;534;48.704;9.122;2024-02-28T18:29:29;30.20;;;22.17;;
1090;SDS011;534;48.704;9.122;2024-02-28T18:31:56;31.20;;;23.70;;
1090;SDS011;534;48.704;9.122;2024-02-28T18:34:23;31.23;;;21.43;;
1090;SDS011;534;48.704;9.122;2024-02-28T18:36:49;31.03;;;22.70;;
1090;SDS011;534;48.704;9.122;2024-02-28T18:39:16;28.50;;;21.17;;
1090;SDS011;534;48.704;9.122;2024-02-28T18:41:43;30.73;;;21.10;;
1090;SDS011;534;48.704;9.122;2024-02-28T18:44:09;32.13;;;22.47;;
1090;SDS011;534;48.704;9.122;2024-02-28T18:46:37;28.90;;;21.07;;
1090;SDS011;534;48.704;9.122;2024-02-28T18:49:04;29.80;;;21.07;;
1090;SDS011;534;48.704;9.122;2024-02-28T18:51:32;29.13;;;21.77;;
1090;SDS011;534;48.704;9.122;2024-02-28T18:53:59;31.53;;;20.23;;
1090;SDS011;534;48.704;9.122;2024-02-28T18:56:27;30.03;;;20.77;;
1090;SDS011;534;48.704;9.122;2024-02-28T18:58:56;32.83;;;23.30;;
1090;SDS011;534;48.704;9.122;2024-02-28T19:01:22;29.27;;;20.17;;
1090;SDS011;534;48.704;9.122;2024-02-28T19:03:50;25.20;;;20.10;;
1090;SDS011;534;48.704;9.122;2024-02-28T19:06:17;31.83;;;21.20;;
1090;SDS011;534;48.704;9.122;2024-02-28T19:08:45;25.10;;;18.63;;
1090;SDS011;534;48.704;9.122;2024-02-28T19:11:12;28.10;;;19.33;;
1090;SDS011;534;48.704;9.122;2024-02-28T19:13:39;34.30;;;30.67;;
1090;SDS011;534;48.704;9.122;2024-02-28T19:16:06;33.03;;;22.10;;
1090;SDS011;534;48.704;9.122;2024-02-28T19:18:33;30.20;;;20.30;;
1090;SDS011;534;48.704;9.122;2024-02-28T19:21:04;31.50;;;23.53;;
1090;SDS011;534;48.704;9.122;2024-02-28T19:23:32;27.47;;;19.77;;
1090;SDS011;534;48.704;9.122;2024-02-28T19:25:59;30.80;;;21.30;;
1090;SDS011;534;48.704;9.122;2024-02-28T19:28:26;26.90;;;19.40;;
1090;SDS011;534;48.704;9.122;2024-02-28T19:30:53;30.13;;;22.17;;
1090;SDS011;534;48.704;9.122;2024-02-28T19:33:20;30.70;;;21.00;;
1090;SDS011;534;48.704;9.122;2024-02-28T19:35:47;33.50;;;23.03;;
1090;SDS011;534;48.704;9.122;2024-02-28T19:38:15;25.67;;;19.70;;
1090;SDS011;534;48.704;9.122;2024-02-28T19:40:42;30.67;;;22.10;;
1090;SDS011;534;48.704;9.122;2024-02-28T19:43:08;28.10;;;19.33;;
1090;SDS011;534;48.704;9.122;2024-02-28T19:45:35;31.47;;;21.60;;
1090;SDS011;534;48.704;9.122;2024-02-28T19:48:02;27.33;;;20.33;;
1090;SDS011;534;48.704;9.122;2024-02-28T19:50:29;31.17;;;20.90;;
1090;SDS011;534;48.704;9.122;2024-02-28T19:52:55;29.93;;;18.97;;
1090;SDS011;534;48.704;9.122;2024-02-28T19:55:23;34.87;;;25.13;;
1090;SDS011;534;48.704;9.122;2024-02-28T19:57:50;32.77;;;22.67;;
1090;SDS011;534;48.704;9.122;2024-02-28T20:00:17;34.40;;;24.63;;